Terminal Aerodrome Forecast
Issued by NWS Hastings, NE

Home | Current Version | Previous Version | Text Only | Print | Product List | Glossary On
Versions: 1 2 3 4 5 6 7 8 9 10 11 12 13 14 15
865
FTUS45 KGID 201720
TAFEAR
TAF
KEAR 201720Z 2018/2118 33018G24KT P6SM FEW100
     FM210000 34009KT P6SM FEW120
     FM211000 VRB06KT P6SM SCT120=

USA.gov is the U.S. government's official web portal to all federal, state and local government web resources and services.